Keeler, California
Current Conditions -  °F | °C
As of 11:56 AM on Monday 24 Nov 2014 (Local Time) from KNID Reporting Station
Broken Clouds Broken Clouds  
Wind Chill: 63°   Ceiling: 28000
Heat Index: 63°   Visibility: 10mi
Dew Point: 12°   Wind: 5mph
Humidity: 14%   Direction: 90°E
Pressure: 30.36"   Gusts: NA
Location:  36.49°N, 117.88°W
Report Text: KNID 241956Z 09004KT 10SM BKN280 17/M11 A3036 RMK AO2 SLP283 T01721111 $
Loading
Personal Weather Stations






























Interactive Weather Map New forecast layout! Learn more

10-Day Weather Forecast

Advertisements
Track Severe Weather on mobile